This is the latest recevied weather packets stored in our database for station/object 9W2YIE-13. If no packets are shown the sender has not sent any weather packets the latest 10 day(s).
| Time | Temp. | Humidity | Pressure | Rain* | Wind** | Luminosity | Snow |
|---|---|---|---|---|---|---|---|
| 1787897768 | 50.56° C | 25% | 1006 hPa | - | - | 0 W/m² | - |
| 1787896839 | 47.22° C | 28% | 1006 hPa | - | - | 0 W/m² | - |
| 1787895899 | 47.78° C | 28% | 1007 hPa | - | - | 0 W/m² | - |
| 1787894965 | 46.11° C | 29% | 1007 hPa | - | - | 0 W/m² | - |
| 1787894039 | 47.22° C | 29% | 1007 hPa | - | - | 0 W/m² | - |
| 1787893111 | 45° C | 32% | 1007 hPa | - | - | 0 W/m² | - |
| 1787892176 | 43.33° C | 34% | 1008 hPa | - | - | 0 W/m² | - |
| 1787891230 | 44.44° C | 33% | 1008 hPa | - | - | 0 W/m² | - |
| 1787890297 | 44.44° C | 32% | 1008 hPa | - | - | 0 W/m² | - |
| 1787889363 | 42.78° C | 35% | 1008 hPa | - | - | 0 W/m² | - |
| 1787888429 | 44.44° C | 33% | 1008 hPa | - | - | 0 W/m² | - |
| 1787887501 | 43.89° C | 34% | 1008 hPa | - | - | 0 W/m² | - |
| 1787886565 | 43.33° C | 34% | 1009 hPa | - | - | 0 W/m² | - |
| 1787885605 | 43.33° C | 35% | 1009 hPa | - | - | 0 W/m² | - |
| 1787885264 | 41.67° C | 37% | 1009 hPa | - | - | 0 W/m² | - |
| 1787884674 | 43.33° C | 35% | 1009 hPa | - | - | 0 W/m² | - |
| 1787883723 | 42.22° C | 37% | 1009 hPa | - | - | 0 W/m² | - |
| 1787882786 | 39.44° C | 40% | 1009 hPa | - | - | 0 W/m² | - |
| 1787881847 | 40° C | 40% | 1009 hPa | - | - | 0 W/m² | - |
| 1787880917 | 39.44° C | 40% | 1009 hPa | - | - | 0 W/m² | - |
| 1787879932 | 39.44° C | 41% | 1008 hPa | - | - | 0 W/m² | - |
| 1787878950 | 40° C | 40% | 1008 hPa | - | - | 0 W/m² | - |
| 1787877982 | 39.44° C | 40% | 1008 hPa | - | - | 0 W/m² | - |
| 1787877273 | 40.56° C | 39% | 1008 hPa | - | - | 0 W/m² | - |
| 1787876308 | 41.11° C | 37% | 1008 hPa | - | - | 0 W/m² | - |
* Rain since midnight (hover to see other rain measurements)
** Current wind speed in m/s (hover to see current wind gust speed)